sensor_id;sensor_type;location;lat;lon;timestamp;P1;durP1;ratioP1;P2;durP2;ratioP2
73697;SDS011;62004;42.566;23.164;2023-02-28T00:01:30;29.38;;;26.90;;
73697;SDS011;62004;42.566;23.164;2023-02-28T00:03:55;27.90;;;25.55;;
73697;SDS011;62004;42.566;23.164;2023-02-28T00:06:21;18.73;;;17.02;;
73697;SDS011;62004;42.566;23.164;2023-02-28T00:08:46;15.97;;;14.83;;
73697;SDS011;62004;42.566;23.164;2023-02-28T00:11:12;16.73;;;15.40;;
73697;SDS011;62004;42.566;23.164;2023-02-28T00:13:39;21.30;;;19.45;;
73697;SDS011;62004;42.566;23.164;2023-02-28T00:16:05;19.02;;;15.40;;
73697;SDS011;62004;42.566;23.164;2023-02-28T00:18:31;18.00;;;15.90;;
73697;SDS011;62004;42.566;23.164;2023-02-28T00:20:57;13.30;;;12.00;;
73697;SDS011;62004;42.566;23.164;2023-02-28T00:23:22;23.10;;;20.77;;
73697;SDS011;62004;42.566;23.164;2023-02-28T00:25:48;14.00;;;12.73;;
73697;SDS011;62004;42.566;23.164;2023-02-28T00:28:13;10.98;;;10.07;;
73697;SDS011;62004;42.566;23.164;2023-02-28T00:30:38;16.73;;;15.73;;
73697;SDS011;62004;42.566;23.164;2023-02-28T00:33:03;7.33;;;6.73;;
73697;SDS011;62004;42.566;23.164;2023-02-28T00:35:29;6.90;;;5.88;;
73697;SDS011;62004;42.566;23.164;2023-02-28T00:37:54;8.93;;;6.10;;
73697;SDS011;62004;42.566;23.164;2023-02-28T00:40:19;45.50;;;40.58;;
73697;SDS011;62004;42.566;23.164;2023-02-28T00:42:45;26.98;;;24.27;;
73697;SDS011;62004;42.566;23.164;2023-02-28T00:45:10;32.60;;;29.77;;
73697;SDS011;62004;42.566;23.164;2023-02-28T00:47:35;46.08;;;41.40;;
73697;SDS011;62004;42.566;23.164;2023-02-28T00:50:00;36.78;;;33.38;;
73697;SDS011;62004;42.566;23.164;2023-02-28T00:52:26;35.97;;;32.72;;
73697;SDS011;62004;42.566;23.164;2023-02-28T00:54:51;39.35;;;35.78;;
73697;SDS011;62004;42.566;23.164;2023-02-28T00:57:16;38.10;;;34.23;;
73697;SDS011;62004;42.566;23.164;2023-02-28T00:59:42;35.63;;;32.53;;
73697;SDS011;62004;42.566;23.164;2023-02-28T01:02:07;56.10;;;49.67;;
73697;SDS011;62004;42.566;23.164;2023-02-28T01:04:32;42.15;;;38.25;;
73697;SDS011;62004;42.566;23.164;2023-02-28T01:06:57;42.80;;;38.47;;
73697;SDS011;62004;42.566;23.164;2023-02-28T01:09:23;76.13;;;64.60;;
73697;SDS011;62004;42.566;23.164;2023-02-28T01:11:48;48.17;;;43.17;;
73697;SDS011;62004;42.566;23.164;2023-02-28T01:14:14;47.70;;;42.60;;
73697;SDS011;62004;42.566;23.164;2023-02-28T01:16:40;68.65;;;61.55;;
73697;SDS011;62004;42.566;23.164;2023-02-28T01:19:05;49.73;;;44.30;;
73697;SDS011;62004;42.566;23.164;2023-02-28T01:21:30;53.73;;;47.90;;
73697;SDS011;62004;42.566;23.164;2023-02-28T01:23:56;50.63;;;45.23;;
73697;SDS011;62004;42.566;23.164;2023-02-28T01:26:21;43.10;;;39.15;;
73697;SDS011;62004;42.566;23.164;2023-02-28T01:28:47;50.55;;;45.22;;
73697;SDS011;62004;42.566;23.164;2023-02-28T01:36:23;47.75;;;42.88;;
73697;SDS011;62004;42.566;23.164;2023-02-28T01:38:49;51.20;;;45.80;;
73697;SDS011;62004;42.566;23.164;2023-02-28T01:41:25;52.47;;;46.80;;
73697;SDS011;62004;42.566;23.164;2023-02-28T01:44:00;60.30;;;52.95;;
73697;SDS011;62004;42.566;23.164;2023-02-28T01:46:28;53.78;;;48.03;;
73697;SDS011;62004;42.566;23.164;2023-02-28T01:49:11;55.13;;;49.22;;
73697;SDS011;62004;42.566;23.164;2023-02-28T01:51:41;60.65;;;53.75;;
73697;SDS011;62004;42.566;23.164;2023-02-28T01:54:16;57.92;;;51.75;;
73697;SDS011;62004;42.566;23.164;2023-02-28T01:56:44;68.32;;;58.33;;
73697;SDS011;62004;42.566;23.164;2023-02-28T01:59:12;60.85;;;53.08;;
73697;SDS011;62004;42.566;23.164;2023-02-28T02:01:38;61.50;;;50.25;;
73697;SDS011;62004;42.566;23.164;2023-02-28T02:04:03;79.43;;;57.83;;
73697;SDS011;62004;42.566;23.164;2023-02-28T02:06:30;129.68;;;116.03;;
73697;SDS011;62004;42.566;23.164;2023-02-28T02:08:58;94.38;;;84.00;;
73697;SDS011;62004;42.566;23.164;2023-02-28T02:11:23;82.07;;;73.20;;
73697;SDS011;62004;42.566;23.164;2023-02-28T02:13:59;80.07;;;71.07;;
73697;SDS011;62004;42.566;23.164;2023-02-28T02:22:01;73.32;;;65.30;;
73697;SDS011;62004;42.566;23.164;2023-02-28T02:24:55;79.80;;;71.05;;
73697;SDS011;62004;42.566;23.164;2023-02-28T02:37:45;116.33;;;104.43;;
73697;SDS011;62004;42.566;23.164;2023-02-28T02:40:17;160.27;;;92.03;;
73697;SDS011;62004;42.566;23.164;2023-02-28T02:42:49;180.45;;;100.60;;
73697;SDS011;62004;42.566;23.164;2023-02-28T02:45:24;103.85;;;92.75;;
73697;SDS011;62004;42.566;23.164;2023-02-28T02:47:50;176.15;;;90.13;;
73697;SDS011;62004;42.566;23.164;2023-02-28T02:50:20;150.55;;;87.90;;
73697;SDS011;62004;42.566;23.164;2023-02-28T02:52:48;95.68;;;84.85;;
73697;SDS011;62004;42.566;23.164;2023-02-28T02:55:16;108.20;;;82.25;;
73697;SDS011;62004;42.566;23.164;2023-02-28T03:00:07;90.77;;;81.03;;
73697;SDS011;62004;42.566;23.164;2023-02-28T03:02:34;89.55;;;79.88;;
73697;SDS011;62004;42.566;23.164;2023-02-28T03:05:01;85.90;;;76.70;;
73697;SDS011;62004;42.566;23.164;2023-02-28T03:07:28;134.40;;;121.35;;
73697;SDS011;62004;42.566;23.164;2023-02-28T03:09:54;124.88;;;112.72;;
73697;SDS011;62004;42.566;23.164;2023-02-28T03:12:19;111.70;;;100.15;;
73697;SDS011;62004;42.566;23.164;2023-02-28T03:20:09;126.90;;;113.47;;
73697;SDS011;62004;42.566;23.164;2023-02-28T03:22:56;124.38;;;112.07;;
73697;SDS011;62004;42.566;23.164;2023-02-28T03:25:29;128.15;;;115.38;;
73697;SDS011;62004;42.566;23.164;2023-02-28T03:33:13;118.13;;;106.22;;
73697;SDS011;62004;42.566;23.164;2023-02-28T03:35:50;113.63;;;101.75;;
73697;SDS011;62004;42.566;23.164;2023-02-28T03:38:19;110.82;;;98.88;;
73697;SDS011;62004;42.566;23.164;2023-02-28T03:40:47;105.55;;;94.60;;
73697;SDS011;62004;42.566;23.164;2023-02-28T03:43:14;106.97;;;95.50;;
73697;SDS011;62004;42.566;23.164;2023-02-28T03:45:43;102.90;;;92.10;;
73697;SDS011;62004;42.566;23.164;2023-02-28T03:50:40;102.80;;;92.47;;
73697;SDS011;62004;42.566;23.164;2023-02-28T03:55:48;109.72;;;98.80;;
73697;SDS011;62004;42.566;23.164;2023-02-28T03:58:28;105.07;;;93.88;;
73697;SDS011;62004;42.566;23.164;2023-02-28T04:00:56;137.25;;;122.78;;
73697;SDS011;62004;42.566;23.164;2023-02-28T04:03:23;131.57;;;117.32;;
73697;SDS011;62004;42.566;23.164;2023-02-28T04:05:57;129.40;;;116.03;;
73697;SDS011;62004;42.566;23.164;2023-02-28T04:08:23;130.00;;;116.05;;
73697;SDS011;62004;42.566;23.164;2023-02-28T04:10:51;148.27;;;132.03;;
73697;SDS011;62004;42.566;23.164;2023-02-28T04:13:17;153.55;;;128.65;;
73697;SDS011;62004;42.566;23.164;2023-02-28T04:15:42;147.27;;;125.43;;
73697;SDS011;62004;42.566;23.164;2023-02-28T04:18:07;139.37;;;121.07;;
73697;SDS011;62004;42.566;23.164;2023-02-28T04:20:33;127.35;;;112.13;;
73697;SDS011;62004;42.566;23.164;2023-02-28T04:22:58;126.73;;;110.13;;
73697;SDS011;62004;42.566;23.164;2023-02-28T04:25:23;119.63;;;107.03;;
73697;SDS011;62004;42.566;23.164;2023-02-28T04:27:48;115.43;;;103.07;;
73697;SDS011;62004;42.566;23.164;2023-02-28T04:30:14;113.53;;;101.67;;
73697;SDS011;62004;42.566;23.164;2023-02-28T04:32:39;120.50;;;107.18;;
73697;SDS011;62004;42.566;23.164;2023-02-28T04:35:04;123.40;;;110.30;;
73697;SDS011;62004;42.566;23.164;2023-02-28T04:37:29;113.80;;;101.63;;
73697;SDS011;62004;42.566;23.164;2023-02-28T04:39:55;114.22;;;102.18;;
73697;SDS011;62004;42.566;23.164;2023-02-28T04:42:20;114.77;;;102.40;;
73697;SDS011;62004;42.566;23.164;2023-02-28T04:44:45;137.93;;;122.73;;
73697;SDS011;62004;42.566;23.164;2023-02-28T04:47:12;141.40;;;124.22;;
73697;SDS011;62004;42.566;23.164;2023-02-28T04:49:37;138.50;;;123.93;;
73697;SDS011;62004;42.566;23.164;2023-02-28T04:52:03;134.68;;;120.00;;
73697;SDS011;62004;42.566;23.164;2023-02-28T04:54:28;128.48;;;115.35;;
73697;SDS011;62004;42.566;23.164;2023-02-28T04:56:54;125.38;;;112.45;;
73697;SDS011;62004;42.566;23.164;2023-02-28T04:59:19;123.18;;;109.88;;
73697;SDS011;62004;42.566;23.164;2023-02-28T05:01:46;125.88;;;112.80;;
73697;SDS011;62004;42.566;23.164;2023-02-28T05:04:11;125.78;;;107.18;;
73697;SDS011;62004;42.566;23.164;2023-02-28T05:06:36;212.50;;;111.07;;
73697;SDS011;62004;42.566;23.164;2023-02-28T05:09:02;337.10;;;118.90;;
73697;SDS011;62004;42.566;23.164;2023-02-28T05:11:31;231.38;;;107.85;;
73697;SDS011;62004;42.566;23.164;2023-02-28T05:14:00;289.27;;;108.25;;
73697;SDS011;62004;42.566;23.164;2023-02-28T05:16:25;419.10;;;113.25;;
73697;SDS011;62004;42.566;23.164;2023-02-28T05:18:50;225.30;;;109.80;;
73697;SDS011;62004;42.566;23.164;2023-02-28T05:21:34;346.55;;;112.80;;
73697;SDS011;62004;42.566;23.164;2023-02-28T05:24:01;339.40;;;115.07;;
73697;SDS011;62004;42.566;23.164;2023-02-28T05:26:27;334.67;;;113.40;;
73697;SDS011;62004;42.566;23.164;2023-02-28T05:28:53;394.73;;;114.63;;
73697;SDS011;62004;42.566;23.164;2023-02-28T05:31:18;324.92;;;110.05;;
73697;SDS011;62004;42.566;23.164;2023-02-28T05:33:43;322.75;;;117.32;;
73697;SDS011;62004;42.566;23.164;2023-02-28T05:36:09;397.70;;;114.68;;
73697;SDS011;62004;42.566;23.164;2023-02-28T05:38:34;389.93;;;119.17;;
73697;SDS011;62004;42.566;23.164;2023-02-28T05:40:59;408.77;;;109.37;;
73697;SDS011;62004;42.566;23.164;2023-02-28T05:43:24;338.67;;;107.77;;
73697;SDS011;62004;42.566;23.164;2023-02-28T05:45:50;281.15;;;101.63;;
73697;SDS011;62004;42.566;23.164;2023-02-28T05:48:15;411.55;;;107.50;;
73697;SDS011;62004;42.566;23.164;2023-02-28T05:50:41;386.25;;;127.00;;
73697;SDS011;62004;42.566;23.164;2023-02-28T05:53:07;275.45;;;121.32;;
73697;SDS011;62004;42.566;23.164;2023-02-28T05:55:32;197.83;;;118.20;;
73697;SDS011;62004;42.566;23.164;2023-02-28T05:57:58;219.88;;;116.00;;
73697;SDS011;62004;42.566;23.164;2023-02-28T06:00:23;184.52;;;112.80;;
73697;SDS011;62004;42.566;23.164;2023-02-28T06:02:49;181.40;;;111.22;;
73697;SDS011;62004;42.566;23.164;2023-02-28T06:05:14;228.77;;;114.17;;
73697;SDS011;62004;42.566;23.164;2023-02-28T06:07:40;249.50;;;109.28;;
73697;SDS011;62004;42.566;23.164;2023-02-28T06:10:05;272.70;;;108.33;;
73697;SDS011;62004;42.566;23.164;2023-02-28T06:12:31;364.38;;;109.72;;
73697;SDS011;62004;42.566;23.164;2023-02-28T06:14:56;312.60;;;108.17;;
73697;SDS011;62004;42.566;23.164;2023-02-28T06:17:21;334.87;;;109.83;;
73697;SDS011;62004;42.566;23.164;2023-02-28T06:19:46;280.57;;;109.03;;
73697;SDS011;62004;42.566;23.164;2023-02-28T06:22:13;328.63;;;113.45;;
73697;SDS011;62004;42.566;23.164;2023-02-28T06:24:38;251.63;;;107.50;;
73697;SDS011;62004;42.566;23.164;2023-02-28T06:27:03;239.23;;;114.73;;
73697;SDS011;62004;42.566;23.164;2023-02-28T06:29:30;215.30;;;109.50;;
73697;SDS011;62004;42.566;23.164;2023-02-28T06:31:56;188.05;;;107.78;;
73697;SDS011;62004;42.566;23.164;2023-02-28T06:34:21;218.00;;;102.80;;
73697;SDS011;62004;42.566;23.164;2023-02-28T06:36:46;212.73;;;102.53;;
73697;SDS011;62004;42.566;23.164;2023-02-28T06:39:11;181.53;;;98.43;;
73697;SDS011;62004;42.566;23.164;2023-02-28T06:41:37;237.87;;;119.97;;
73697;SDS011;62004;42.566;23.164;2023-02-28T06:44:03;174.63;;;120.70;;
73697;SDS011;62004;42.566;23.164;2023-02-28T06:46:30;174.73;;;111.85;;
73697;SDS011;62004;42.566;23.164;2023-02-28T06:48:55;136.50;;;110.20;;
73697;SDS011;62004;42.566;23.164;2023-02-28T06:51:20;141.37;;;100.57;;
73697;SDS011;62004;42.566;23.164;2023-02-28T06:53:47;135.57;;;95.13;;
73697;SDS011;62004;42.566;23.164;2023-02-28T06:56:13;225.10;;;103.03;;
73697;SDS011;62004;42.566;23.164;2023-02-28T06:58:38;217.05;;;99.35;;
73697;SDS011;62004;42.566;23.164;2023-02-28T07:01:04;344.58;;;103.65;;
73697;SDS011;62004;42.566;23.164;2023-02-28T07:03:30;145.07;;;95.45;;
73697;SDS011;62004;42.566;23.164;2023-02-28T07:05:55;296.13;;;101.78;;
73697;SDS011;62004;42.566;23.164;2023-02-28T07:08:21;142.20;;;98.88;;
73697;SDS011;62004;42.566;23.164;2023-02-28T07:10:47;451.63;;;112.47;;
73697;SDS011;62004;42.566;23.164;2023-02-28T07:13:12;446.90;;;114.30;;
73697;SDS011;62004;42.566;23.164;2023-02-28T07:15:37;455.20;;;110.13;;
73697;SDS011;62004;42.566;23.164;2023-02-28T07:18:03;125.22;;;99.25;;
73697;SDS011;62004;42.566;23.164;2023-02-28T07:20:28;164.60;;;97.35;;
73697;SDS011;62004;42.566;23.164;2023-02-28T07:22:53;259.98;;;98.18;;
73697;SDS011;62004;42.566;23.164;2023-02-28T07:25:22;321.85;;;109.32;;
73697;SDS011;62004;42.566;23.164;2023-02-28T07:27:47;564.15;;;113.25;;
73697;SDS011;62004;42.566;23.164;2023-02-28T07:30:13;431.47;;;109.47;;
73697;SDS011;62004;42.566;23.164;2023-02-28T07:32:38;353.63;;;106.22;;
73697;SDS011;62004;42.566;23.164;2023-02-28T07:35:03;411.17;;;102.80;;
73697;SDS011;62004;42.566;23.164;2023-02-28T07:37:29;206.77;;;94.45;;
73697;SDS011;62004;42.566;23.164;2023-02-28T07:39:56;198.95;;;99.97;;
73697;SDS011;62004;42.566;23.164;2023-02-28T07:42:21;266.90;;;94.53;;
73697;SDS011;62004;42.566;23.164;2023-02-28T07:44:47;126.17;;;89.27;;
73697;SDS011;62004;42.566;23.164;2023-02-28T07:47:12;247.73;;;92.10;;
73697;SDS011;62004;42.566;23.164;2023-02-28T07:49:37;193.77;;;90.25;;
73697;SDS011;62004;42.566;23.164;2023-02-28T07:52:06;199.15;;;88.93;;
73697;SDS011;62004;42.566;23.164;2023-02-28T07:54:32;165.25;;;85.47;;
73697;SDS011;62004;42.566;23.164;2023-02-28T07:56:57;163.50;;;85.90;;
73697;SDS011;62004;42.566;23.164;2023-02-28T07:59:22;453.47;;;96.10;;
73697;SDS011;62004;42.566;23.164;2023-02-28T08:01:48;342.10;;;92.80;;
73697;SDS011;62004;42.566;23.164;2023-02-28T08:04:15;330.42;;;97.53;;
73697;SDS011;62004;42.566;23.164;2023-02-28T08:06:41;150.27;;;85.57;;
73697;SDS011;62004;42.566;23.164;2023-02-28T08:09:06;157.63;;;88.75;;
73697;SDS011;62004;42.566;23.164;2023-02-28T08:11:31;280.57;;;88.27;;
73697;SDS011;62004;42.566;23.164;2023-02-28T08:13:57;214.63;;;88.30;;
73697;SDS011;62004;42.566;23.164;2023-02-28T08:16:22;137.33;;;88.93;;
73697;SDS011;62004;42.566;23.164;2023-02-28T08:18:48;226.70;;;89.30;;
73697;SDS011;62004;42.566;23.164;2023-02-28T08:21:14;184.20;;;94.55;;
73697;SDS011;62004;42.566;23.164;2023-02-28T08:23:39;218.63;;;89.93;;
73697;SDS011;62004;42.566;23.164;2023-02-28T08:26:05;153.60;;;91.15;;
73697;SDS011;62004;42.566;23.164;2023-02-28T08:28:30;171.38;;;90.13;;
73697;SDS011;62004;42.566;23.164;2023-02-28T08:30:55;179.57;;;87.47;;
73697;SDS011;62004;42.566;23.164;2023-02-28T08:33:21;272.63;;;87.72;;
73697;SDS011;62004;42.566;23.164;2023-02-28T08:35:47;152.95;;;85.93;;
73697;SDS011;62004;42.566;23.164;2023-02-28T08:38:12;167.63;;;83.47;;
73697;SDS011;62004;42.566;23.164;2023-02-28T08:40:38;233.60;;;117.67;;
73697;SDS011;62004;42.566;23.164;2023-02-28T08:43:03;158.93;;;120.22;;
73697;SDS011;62004;42.566;23.164;2023-02-28T08:45:29;168.23;;;113.50;;
73697;SDS011;62004;42.566;23.164;2023-02-28T08:47:54;337.23;;;119.83;;
73697;SDS011;62004;42.566;23.164;2023-02-28T08:50:20;251.93;;;125.43;;
73697;SDS011;62004;42.566;23.164;2023-02-28T08:52:45;172.85;;;102.65;;
73697;SDS011;62004;42.566;23.164;2023-02-28T08:55:10;183.77;;;108.80;;
73697;SDS011;62004;42.566;23.164;2023-02-28T08:57:36;218.10;;;118.37;;
73697;SDS011;62004;42.566;23.164;2023-02-28T09:00:02;178.53;;;113.87;;
73697;SDS011;62004;42.566;23.164;2023-02-28T09:02:29;195.65;;;119.93;;
73697;SDS011;62004;42.566;23.164;2023-02-28T09:04:55;194.57;;;113.72;;
73697;SDS011;62004;42.566;23.164;2023-02-28T09:07:20;136.80;;;100.33;;
73697;SDS011;62004;42.566;23.164;2023-02-28T09:09:45;142.03;;;102.00;;
73697;SDS011;62004;42.566;23.164;2023-02-28T09:12:19;210.23;;;112.72;;
73697;SDS011;62004;42.566;23.164;2023-02-28T09:14:44;151.52;;;99.78;;
73697;SDS011;62004;42.566;23.164;2023-02-28T09:17:09;128.83;;;94.53;;
73697;SDS011;62004;42.566;23.164;2023-02-28T09:19:34;131.03;;;93.80;;
73697;SDS011;62004;42.566;23.164;2023-02-28T09:22:00;156.75;;;97.78;;
73697;SDS011;62004;42.566;23.164;2023-02-28T09:24:25;134.53;;;86.43;;
73697;SDS011;62004;42.566;23.164;2023-02-28T09:26:50;205.40;;;100.63;;
73697;SDS011;62004;42.566;23.164;2023-02-28T09:29:15;151.67;;;99.30;;
73697;SDS011;62004;42.566;23.164;2023-02-28T09:31:42;159.73;;;100.75;;
73697;SDS011;62004;42.566;23.164;2023-02-28T09:34:07;198.33;;;98.00;;
73697;SDS011;62004;42.566;23.164;2023-02-28T09:36:32;144.43;;;106.23;;
73697;SDS011;62004;42.566;23.164;2023-02-28T09:38:59;146.95;;;94.57;;
73697;SDS011;62004;42.566;23.164;2023-02-28T09:41:25;132.73;;;92.20;;
73697;SDS011;62004;42.566;23.164;2023-02-28T09:43:54;126.68;;;89.78;;
73697;SDS011;62004;42.566;23.164;2023-02-28T09:46:26;146.52;;;92.90;;
73697;SDS011;62004;42.566;23.164;2023-02-28T09:48:52;133.20;;;88.00;;
73697;SDS011;62004;42.566;23.164;2023-02-28T09:53:48;161.75;;;108.18;;
73697;SDS011;62004;42.566;23.164;2023-02-28T09:56:15;162.40;;;102.40;;
73697;SDS011;62004;42.566;23.164;2023-02-28T10:04:27;173.20;;;106.63;;
73697;SDS011;62004;42.566;23.164;2023-02-28T10:06:36;168.50;;;106.35;;
73697;SDS011;62004;42.566;23.164;2023-02-28T10:09:10;149.82;;;100.57;;
73697;SDS011;62004;42.566;23.164;2023-02-28T10:11:38;148.43;;;98.78;;
73697;SDS011;62004;42.566;23.164;2023-02-28T10:14:06;146.65;;;94.32;;
73697;SDS011;62004;42.566;23.164;2023-02-28T10:16:36;137.10;;;94.13;;
73697;SDS011;62004;42.566;23.164;2023-02-28T10:19:11;136.73;;;94.75;;
73697;SDS011;62004;42.566;23.164;2023-02-28T10:21:39;129.00;;;91.70;;
73697;SDS011;62004;42.566;23.164;2023-02-28T10:26:50;163.63;;;109.35;;
73697;SDS011;62004;42.566;23.164;2023-02-28T10:29:17;159.73;;;105.10;;
73697;SDS011;62004;42.566;23.164;2023-02-28T10:31:42;143.80;;;98.57;;
73697;SDS011;62004;42.566;23.164;2023-02-28T10:34:08;156.13;;;101.73;;
73697;SDS011;62004;42.566;23.164;2023-02-28T10:36:35;148.05;;;96.53;;
73697;SDS011;62004;42.566;23.164;2023-02-28T10:39:01;169.40;;;107.00;;
73697;SDS011;62004;42.566;23.164;2023-02-28T10:41:30;154.03;;;100.57;;
73697;SDS011;62004;42.566;23.164;2023-02-28T10:46:40;160.65;;;103.03;;
73697;SDS011;62004;42.566;23.164;2023-02-28T10:49:11;159.13;;;98.88;;
73697;SDS011;62004;42.566;23.164;2023-02-28T10:51:38;153.95;;;101.53;;
73697;SDS011;62004;42.566;23.164;2023-02-28T10:54:03;153.15;;;98.30;;
73697;SDS011;62004;42.566;23.164;2023-02-28T10:56:29;149.18;;;93.95;;
73697;SDS011;62004;42.566;23.164;2023-02-28T11:03:46;145.00;;;94.28;;
73697;SDS011;62004;42.566;23.164;2023-02-28T11:06:13;149.85;;;97.55;;
73697;SDS011;62004;42.566;23.164;2023-02-28T11:08:43;158.52;;;99.47;;
73697;SDS011;62004;42.566;23.164;2023-02-28T11:11:09;163.10;;;102.10;;
73697;SDS011;62004;42.566;23.164;2023-02-28T11:13:35;163.07;;;98.53;;
73697;SDS011;62004;42.566;23.164;2023-02-28T11:16:04;156.52;;;97.10;;
73697;SDS011;62004;42.566;23.164;2023-02-28T11:21:01;161.77;;;102.15;;
73697;SDS011;62004;42.566;23.164;2023-02-28T11:23:27;155.93;;;100.40;;
73697;SDS011;62004;42.566;23.164;2023-02-28T11:25:55;158.73;;;100.53;;
73697;SDS011;62004;42.566;23.164;2023-02-28T11:28:25;154.60;;;98.18;;
73697;SDS011;62004;42.566;23.164;2023-02-28T11:33:43;159.07;;;102.57;;
73697;SDS011;62004;42.566;23.164;2023-02-28T11:36:14;167.25;;;105.95;;
73697;SDS011;62004;42.566;23.164;2023-02-28T11:41:11;165.53;;;106.10;;
73697;SDS011;62004;42.566;23.164;2023-02-28T11:43:50;178.40;;;108.18;;
73697;SDS011;62004;42.566;23.164;2023-02-28T11:46:33;149.75;;;91.43;;
73697;SDS011;62004;42.566;23.164;2023-02-28T11:52:04;201.93;;;119.38;;
73697;SDS011;62004;42.566;23.164;2023-02-28T11:57:32;178.55;;;110.22;;
73697;SDS011;62004;42.566;23.164;2023-02-28T12:05:15;205.10;;;129.23;;
73697;SDS011;62004;42.566;23.164;2023-02-28T12:08:03;223.85;;;134.25;;
73697;SDS011;62004;42.566;23.164;2023-02-28T12:10:39;245.25;;;147.20;;
73697;SDS011;62004;42.566;23.164;2023-02-28T12:13:21;253.70;;;163.30;;
73697;SDS011;62004;42.566;23.164;2023-02-28T12:16:01;277.30;;;174.00;;
73697;SDS011;62004;42.566;23.164;2023-02-28T12:24:00;275.25;;;168.07;;
73697;SDS011;62004;42.566;23.164;2023-02-28T12:28:53;293.03;;;182.77;;
73697;SDS011;62004;42.566;23.164;2023-02-28T12:31:20;291.98;;;181.07;;
73697;SDS011;62004;42.566;23.164;2023-02-28T12:33:53;302.90;;;198.13;;
73697;SDS011;62004;42.566;23.164;2023-02-28T12:36:21;304.27;;;183.55;;
73697;SDS011;62004;42.566;23.164;2023-02-28T12:44:11;291.65;;;179.18;;
73697;SDS011;62004;42.566;23.164;2023-02-28T12:46:38;302.80;;;191.70;;
73697;SDS011;62004;42.566;23.164;2023-02-28T12:49:41;308.05;;;184.98;;
73697;SDS011;62004;42.566;23.164;2023-02-28T12:51:57;314.13;;;193.25;;
73697;SDS011;62004;42.566;23.164;2023-02-28T12:54:42;310.50;;;186.48;;
73697;SDS011;62004;42.566;23.164;2023-02-28T12:57:13;294.23;;;179.18;;
73697;SDS011;62004;42.566;23.164;2023-02-28T12:59:45;290.85;;;174.57;;
73697;SDS011;62004;42.566;23.164;2023-02-28T13:02:33;285.00;;;171.35;;
73697;SDS011;62004;42.566;23.164;2023-02-28T13:10:12;288.10;;;172.43;;
73697;SDS011;62004;42.566;23.164;2023-02-28T13:12:47;215.32;;;127.05;;
73697;SDS011;62004;42.566;23.164;2023-02-28T13:15:22;196.73;;;113.93;;
73697;SDS011;62004;42.566;23.164;2023-02-28T13:17:53;187.73;;;109.45;;
73697;SDS011;62004;42.566;23.164;2023-02-28T13:22:45;240.63;;;145.30;;
73697;SDS011;62004;42.566;23.164;2023-02-28T13:27:46;248.23;;;148.15;;
73697;SDS011;62004;42.566;23.164;2023-02-28T13:36:10;273.17;;;169.40;;
73697;SDS011;62004;42.566;23.164;2023-02-28T13:46:24;307.52;;;187.90;;
73697;SDS011;62004;42.566;23.164;2023-02-28T13:48:49;299.07;;;182.83;;
73697;SDS011;62004;42.566;23.164;2023-02-28T13:54:00;299.60;;;184.40;;
73697;SDS011;62004;42.566;23.164;2023-02-28T13:56:34;296.23;;;184.73;;
73697;SDS011;62004;42.566;23.164;2023-02-28T13:59:07;294.55;;;182.85;;
73697;SDS011;62004;42.566;23.164;2023-02-28T14:01:48;298.77;;;184.57;;
73697;SDS011;62004;42.566;23.164;2023-02-28T14:06:48;318.23;;;198.07;;
73697;SDS011;62004;42.566;23.164;2023-02-28T14:11:49;316.13;;;194.27;;
73697;SDS011;62004;42.566;23.164;2023-02-28T14:16:58;317.20;;;193.93;;
73697;SDS011;62004;42.566;23.164;2023-02-28T14:19:24;312.25;;;192.43;;
73697;SDS011;62004;42.566;23.164;2023-02-28T14:22:03;312.33;;;190.05;;
73697;SDS011;62004;42.566;23.164;2023-02-28T14:35:03;303.60;;;188.88;;
73697;SDS011;62004;42.566;23.164;2023-02-28T14:37:36;303.00;;;187.25;;
73697;SDS011;62004;42.566;23.164;2023-02-28T14:40:02;298.15;;;182.65;;
73697;SDS011;62004;42.566;23.164;2023-02-28T14:42:33;296.77;;;182.13;;
73697;SDS011;62004;42.566;23.164;2023-02-28T14:44:59;297.42;;;179.75;;
73697;SDS011;62004;42.566;23.164;2023-02-28T14:47:26;298.60;;;183.57;;
73697;SDS011;62004;42.566;23.164;2023-02-28T14:49:52;301.85;;;182.02;;
73697;SDS011;62004;42.566;23.164;2023-02-28T14:52:20;303.73;;;186.63;;
73697;SDS011;62004;42.566;23.164;2023-02-28T14:54:46;305.95;;;187.27;;
73697;SDS011;62004;42.566;23.164;2023-02-28T14:57:26;306.60;;;184.98;;
73697;SDS011;62004;42.566;23.164;2023-02-28T14:59:58;308.77;;;191.90;;
73697;SDS011;62004;42.566;23.164;2023-02-28T15:02:24;297.75;;;182.48;;
73697;SDS011;62004;42.566;23.164;2023-02-28T15:04:57;295.02;;;181.90;;
73697;SDS011;62004;42.566;23.164;2023-02-28T15:07:23;297.60;;;182.57;;
73697;SDS011;62004;42.566;23.164;2023-02-28T15:12:37;302.63;;;180.80;;
73697;SDS011;62004;42.566;23.164;2023-02-28T15:15:04;304.70;;;184.07;;
73697;SDS011;62004;42.566;23.164;2023-02-28T15:17:30;302.65;;;181.88;;
73697;SDS011;62004;42.566;23.164;2023-02-28T15:19:55;298.98;;;181.77;;
73697;SDS011;62004;42.566;23.164;2023-02-28T15:22:27;292.58;;;180.63;;
73697;SDS011;62004;42.566;23.164;2023-02-28T15:24:54;306.98;;;182.80;;
73697;SDS011;62004;42.566;23.164;2023-02-28T15:27:20;287.30;;;179.73;;
73697;SDS011;62004;42.566;23.164;2023-02-28T15:29:50;291.23;;;179.68;;
73697;SDS011;62004;42.566;23.164;2023-02-28T15:32:21;297.45;;;181.70;;
73697;SDS011;62004;42.566;23.164;2023-02-28T15:34:48;296.50;;;187.90;;
73697;SDS011;62004;42.566;23.164;2023-02-28T15:39:51;299.25;;;188.95;;
73697;SDS011;62004;42.566;23.164;2023-02-28T15:42:20;300.98;;;188.48;;
73697;SDS011;62004;42.566;23.164;2023-02-28T15:44:46;301.08;;;186.82;;
73697;SDS011;62004;42.566;23.164;2023-02-28T15:47:19;299.25;;;186.95;;
73697;SDS011;62004;42.566;23.164;2023-02-28T15:52:12;294.47;;;185.60;;
73697;SDS011;62004;42.566;23.164;2023-02-28T15:54:37;297.95;;;186.35;;
73697;SDS011;62004;42.566;23.164;2023-02-28T15:57:06;308.50;;;192.23;;
73697;SDS011;62004;42.566;23.164;2023-02-28T15:59:35;297.73;;;188.55;;
73697;SDS011;62004;42.566;23.164;2023-02-28T16:02:03;295.90;;;184.93;;
73697;SDS011;62004;42.566;23.164;2023-02-28T16:04:29;285.77;;;189.95;;
73697;SDS011;62004;42.566;23.164;2023-02-28T16:09:24;300.02;;;190.82;;
73697;SDS011;62004;42.566;23.164;2023-02-28T16:11:52;299.00;;;191.75;;
73697;SDS011;62004;42.566;23.164;2023-02-28T16:14:22;300.40;;;190.57;;
73697;SDS011;62004;42.566;23.164;2023-02-28T16:16:52;293.42;;;187.93;;
73697;SDS011;62004;42.566;23.164;2023-02-28T16:19:18;289.20;;;190.50;;